Allen Springs, Kentucky
Current Conditions -  °F | °C
As of 4:53 PM on Monday 20 Oct 2014 (Local Time) from KBWG Reporting Station
Clear Clear  
Wind Chill: 68°   Ceiling: Unl
Heat Index: 68°   Visibility: 10mi
Dew Point: 49°   Wind: 12mph
Humidity: 50%   Direction: 220°SW
Pressure: 29.94"   Gusts: NA
Location:  36.8592°N, 86.3531°W
Report Text: KBWG 202153Z AUTO 22010KT 10SM CLR 20/09 A2994 RMK AO2 SLP136 T02000094
Loading
Personal Weather Stations






























Interactive Weather Map
Tropical Storm Tracking
New forecast layout! Learn more

10-Day Weather Forecast

Advertisements
Track Severe Weather on mobile